createdAt,value
2022-11-08T00:02:20.240Z,54.13
2022-11-08T00:04:46.837Z,53.68
2022-11-08T00:07:31.820Z,53.76
2022-11-08T00:10:16.803Z,53.72
2022-11-08T00:13:01.591Z,53.72
2022-11-08T00:15:28.157Z,53.62
2022-11-08T00:17:54.618Z,53.78
2022-11-08T00:20:21.110Z,53.62
2022-11-08T00:22:47.611Z,53.54
2022-11-08T00:25:14.102Z,53.61
2022-11-08T00:27:40.565Z,53.75
2022-11-08T00:30:07.482Z,53.55
2022-11-08T00:32:34.065Z,53.63
2022-11-08T00:35:00.576Z,53.75
2022-11-08T00:37:30.066Z,53.71
2022-11-08T00:39:56.569Z,53.65
2022-11-08T00:42:23.091Z,53.51
2022-11-08T00:44:49.566Z,53.63
2022-11-08T00:47:16.071Z,53.54
2022-11-08T00:49:42.561Z,53.46
2022-11-08T00:52:09.178Z,53.65
2022-11-08T00:54:35.680Z,53.47
2022-11-08T00:57:02.203Z,53.82
2022-11-08T00:59:28.690Z,53.54
2022-11-08T01:01:55.294Z,53.65
2022-11-08T01:04:21.878Z,53.57
2022-11-08T01:06:48.393Z,53.46
2022-11-08T01:09:14.921Z,53.73
2022-11-08T01:11:46.607Z,53.71
2022-11-08T01:14:14.002Z,53.58
2022-11-08T01:16:40.579Z,53.56
2022-11-08T01:19:07.085Z,53.10
2022-11-08T01:21:33.589Z,53.22
2022-11-08T01:24:00.084Z,53.25
2022-11-08T01:26:27.945Z,53.25
2022-11-08T01:28:54.854Z,53.15
2022-11-08T01:31:23.107Z,53.08
2022-11-08T01:33:51.497Z,52.94
2022-11-08T01:36:20.687Z,52.98
2022-11-08T01:38:47.454Z,52.92
2022-11-08T01:41:14.512Z,53.04
2022-11-08T01:43:45.675Z,53.06
2022-11-08T01:46:18.246Z,53.11
2022-11-08T01:49:19.040Z,53.26
2022-11-08T01:51:59.442Z,53.20
2022-11-08T01:54:38.430Z,53.21
2022-11-08T01:57:06.491Z,53.34
2022-11-08T01:59:33.254Z,53.27
2022-11-08T02:01:59.840Z,53.59
2022-11-08T02:04:26.426Z,53.24
2022-11-08T02:06:52.923Z,53.70
2022-11-08T02:09:19.404Z,53.48
2022-11-08T02:11:46.875Z,53.23
2022-11-08T02:14:13.424Z,53.07
2022-11-08T02:16:39.923Z,53.06
2022-11-08T02:19:06.502Z,53.29
2022-11-08T02:21:45.792Z,53.09
2022-11-08T02:24:12.482Z,53.17
2022-11-08T02:26:39.112Z,53.17
2022-11-08T02:29:28.540Z,53.04
2022-11-08T02:31:55.278Z,52.88
2022-11-08T02:34:25.993Z,53.07
2022-11-08T02:36:52.526Z,52.75
2022-11-08T02:39:19.022Z,53.06
2022-11-08T02:41:45.502Z,52.92
2022-11-08T02:44:12.017Z,52.97
2022-11-08T02:46:38.537Z,52.92
2022-11-08T02:49:05.065Z,53.01
2022-11-08T02:51:31.554Z,52.86
2022-11-08T02:53:58.053Z,52.90
2022-11-08T02:56:24.596Z,53.13
2022-11-08T02:58:51.086Z,53.03
2022-11-08T03:01:17.710Z,53.01
2022-11-08T03:03:44.321Z,52.84
2022-11-08T03:06:10.825Z,52.99
2022-11-08T03:08:37.315Z,52.92
2022-11-08T03:11:03.809Z,53.03
2022-11-08T03:13:30.287Z,53.03
2022-11-08T03:15:56.746Z,52.96
2022-11-08T03:18:23.249Z,52.85
2022-11-08T03:20:49.705Z,52.99
2022-11-08T03:23:16.214Z,52.85
2022-11-08T03:25:42.710Z,52.93
2022-11-08T03:28:09.326Z,52.91
2022-11-08T03:30:36.037Z,52.89
2022-11-08T03:33:02.550Z,52.99
2022-11-08T03:35:29.039Z,52.99
2022-11-08T03:37:56.372Z,52.78
2022-11-08T03:40:23.093Z,52.87
2022-11-08T03:42:49.610Z,52.90
2022-11-08T03:45:16.278Z,53.13
2022-11-08T03:47:43.529Z,53.06
2022-11-08T03:50:10.285Z,52.92
2022-11-08T03:52:56.369Z,53.00
2022-11-08T03:55:24.576Z,53.15
2022-11-08T03:57:51.286Z,53.00
2022-11-08T04:00:19.621Z,52.88
2022-11-08T04:02:46.537Z,52.98
2022-11-08T04:05:13.437Z,52.90
2022-11-08T04:07:40.091Z,52.94
2022-11-08T04:10:07.677Z,52.88
2022-11-08T04:12:52.787Z,52.81
2022-11-08T04:15:20.979Z,52.79
2022-11-08T04:18:07.540Z,52.79
2022-11-08T04:20:52.763Z,52.84
2022-11-08T04:23:19.273Z,52.81
2022-11-08T04:25:45.778Z,53.02
2022-11-08T04:28:12.237Z,53.08
2022-11-08T04:30:38.725Z,53.13
2022-11-08T04:33:05.357Z,53.09
2022-11-08T04:35:31.961Z,53.17
2022-11-08T04:37:59.990Z,53.33
2022-11-08T04:40:26.694Z,53.20
2022-11-08T04:42:53.184Z,53.54
2022-11-08T04:45:19.695Z,53.23
2022-11-08T04:47:48.488Z,53.16
2022-11-08T04:50:15.555Z,53.01
2022-11-08T04:52:42.146Z,52.89
2022-11-08T04:55:09.006Z,52.92
2022-11-08T04:57:35.578Z,52.81
2022-11-08T05:00:02.058Z,52.77
2022-11-08T05:02:28.697Z,52.70
2022-11-08T05:04:55.287Z,52.60
2022-11-08T05:07:21.777Z,52.92
2022-11-08T05:09:48.327Z,52.66
2022-11-08T05:12:14.830Z,52.75
2022-11-08T05:14:41.338Z,53.29
2022-11-08T05:17:07.879Z,52.82
2022-11-08T05:19:52.706Z,52.91
2022-11-08T05:22:37.470Z,53.13
2022-11-08T05:25:04.185Z,52.96
2022-11-08T05:27:30.677Z,53.09
2022-11-08T05:29:57.147Z,53.33
2022-11-08T05:32:23.666Z,53.16
2022-11-08T05:34:50.130Z,53.03
2022-11-08T05:37:16.619Z,53.18
2022-11-08T05:39:43.121Z,53.34
2022-11-08T05:42:09.665Z,53.19
2022-11-08T05:44:36.195Z,53.12
2022-11-08T05:47:02.743Z,52.90
2022-11-08T05:49:29.219Z,52.96
2022-11-08T05:51:55.876Z,52.78
2022-11-08T05:54:22.384Z,52.90
2022-11-08T05:56:48.890Z,52.83
2022-11-08T05:59:15.360Z,51.25
2022-11-08T06:01:41.929Z,50.14
2022-11-08T06:04:08.498Z,48.17
2022-11-08T06:06:34.991Z,46.67
2022-11-08T06:09:01.501Z,46.27
2022-11-08T06:11:28.374Z,46.37
2022-11-08T06:13:54.997Z,47.00
2022-11-08T06:16:22.228Z,47.10
2022-11-08T06:18:48.775Z,47.37
2022-11-08T06:21:16.661Z,47.72
2022-11-08T06:23:43.177Z,48.26
2022-11-08T06:26:09.731Z,48.54
2022-11-08T06:28:36.298Z,49.09
2022-11-08T06:31:03.171Z,49.45
2022-11-08T06:33:29.728Z,49.64
2022-11-08T06:35:56.291Z,49.78
2022-11-08T06:38:22.787Z,49.78
2022-11-08T06:40:49.366Z,49.80
2022-11-08T06:43:19.566Z,50.10
2022-11-08T06:45:46.230Z,50.38
2022-11-08T06:48:12.704Z,50.54
2022-11-08T06:50:39.211Z,50.52
2022-11-08T06:53:06.991Z,50.58
2022-11-08T06:55:33.872Z,50.72
2022-11-08T06:58:00.428Z,50.96
2022-11-08T07:00:27.097Z,51.10
2022-11-08T07:02:57.903Z,50.99
2022-11-08T07:05:24.988Z,50.58
2022-11-08T07:07:54.122Z,48.85
2022-11-08T07:10:21.693Z,46.22
2022-11-08T07:12:48.515Z,44.55
2022-11-08T07:15:15.051Z,43.56
2022-11-08T07:17:41.543Z,43.30
2022-11-08T07:20:08.558Z,42.81
2022-11-08T07:22:35.594Z,43.18
2022-11-08T07:25:02.151Z,44.00
2022-11-08T07:27:28.683Z,45.02
2022-11-08T07:29:55.161Z,45.22
2022-11-08T07:32:21.740Z,45.76
2022-11-08T07:34:48.259Z,46.19
2022-11-08T07:37:14.770Z,46.51
2022-11-08T07:39:41.244Z,46.86
2022-11-08T07:42:07.758Z,46.92
2022-11-08T07:44:34.315Z,47.24
2022-11-08T07:47:00.806Z,47.41
2022-11-08T07:49:27.298Z,47.66
2022-11-08T07:51:53.780Z,47.96
2022-11-08T07:54:20.278Z,48.01
2022-11-08T07:56:46.752Z,47.83
2022-11-08T07:59:13.285Z,47.86
2022-11-08T08:01:39.812Z,48.04
2022-11-08T08:04:06.364Z,48.01
2022-11-08T08:06:33.750Z,48.56
2022-11-08T08:09:00.334Z,48.61
2022-11-08T08:11:32.391Z,49.17
2022-11-08T08:14:00.062Z,49.09
2022-11-08T08:16:26.541Z,49.24
2022-11-08T08:18:56.292Z,49.28
2022-11-08T08:21:23.401Z,49.21
2022-11-08T08:23:49.888Z,49.43
2022-11-08T08:26:16.395Z,49.65
2022-11-08T08:28:42.902Z,49.67
2022-11-08T08:31:09.469Z,49.74
2022-11-08T08:33:37.423Z,49.86
2022-11-08T08:36:04.343Z,49.97
2022-11-08T08:38:31.577Z,50.04
2022-11-08T08:40:58.452Z,49.99
2022-11-08T08:43:25.008Z,49.82
2022-11-08T08:45:51.555Z,50.08
2022-11-08T08:48:18.094Z,49.94
2022-11-08T08:50:44.589Z,50.16
2022-11-08T08:53:11.137Z,49.92
2022-11-08T08:55:38.830Z,50.22
2022-11-08T08:58:05.823Z,50.16
2022-11-08T09:03:19.963Z,50.30
2022-11-08T09:05:46.937Z,50.17
2022-11-08T09:08:15.755Z,50.20
2022-11-08T09:10:42.367Z,50.41
2022-11-08T09:13:08.916Z,50.18
2022-11-08T09:15:35.437Z,50.14
2022-11-08T09:18:02.063Z,50.54
2022-11-08T09:20:28.599Z,50.40
2022-11-08T09:22:55.085Z,50.80
2022-11-08T09:25:21.609Z,50.42
2022-11-08T09:27:48.085Z,50.61
2022-11-08T09:30:14.729Z,50.49
2022-11-08T09:35:27.864Z,50.00
2022-11-08T09:37:54.375Z,49.14
2022-11-08T09:40:27.414Z,49.50
2022-11-08T09:43:08.459Z,49.59
2022-11-08T09:45:43.926Z,49.77
2022-11-08T09:48:21.531Z,49.67
2022-11-08T09:50:48.083Z,50.16
2022-11-08T09:53:34.849Z,50.11
2022-11-08T09:56:15.889Z,50.04
2022-11-08T09:58:51.457Z,50.24
2022-11-08T10:01:18.486Z,50.30
2022-11-08T10:03:52.179Z,50.24
2022-11-08T10:06:46.396Z,50.38
2022-11-08T10:09:12.899Z,50.47
2022-11-08T10:11:52.559Z,50.46
2022-11-08T10:14:28.044Z,50.62
2022-11-08T10:17:19.420Z,50.77
2022-11-08T10:19:51.920Z,50.90
2022-11-08T10:22:29.502Z,50.87
2022-11-08T10:25:26.967Z,50.81
2022-11-08T10:27:54.869Z,50.84
2022-11-08T10:30:23.269Z,50.77
2022-11-08T10:32:54.483Z,50.83
2022-11-08T10:35:38.215Z,50.74
2022-11-08T10:38:13.694Z,50.70
2022-11-08T10:40:42.885Z,50.86
2022-11-08T10:43:12.139Z,50.95
2022-11-08T10:45:38.674Z,50.88
2022-11-08T10:48:05.470Z,50.85
2022-11-08T10:50:44.905Z,50.92
2022-11-08T10:53:23.440Z,50.94
2022-11-08T10:56:00.191Z,51.04
2022-11-08T10:58:40.811Z,50.99
2022-11-08T11:01:18.596Z,50.97
2022-11-08T11:03:46.192Z,50.90
2022-11-08T11:06:32.844Z,50.88
2022-11-08T11:09:01.160Z,51.03
2022-11-08T11:11:36.344Z,51.14
2022-11-08T11:14:21.915Z,51.20
2022-11-08T11:16:53.880Z,51.29
2022-11-08T11:19:20.459Z,51.67
2022-11-08T11:21:46.943Z,51.11
2022-11-08T11:24:20.713Z,51.38
2022-11-08T11:26:56.407Z,51.24
2022-11-08T11:29:25.832Z,51.20
2022-11-08T11:31:53.065Z,51.14
2022-11-08T11:34:19.488Z,51.39
2022-11-08T11:36:55.645Z,51.55
2022-11-08T11:39:28.620Z,51.42
2022-11-08T11:42:44.553Z,51.39
2022-11-08T11:45:17.941Z,51.29
2022-11-08T11:48:17.190Z,51.48
2022-11-08T11:50:48.376Z,51.46
2022-11-08T11:53:23.018Z,51.26
2022-11-08T11:56:07.946Z,51.25
2022-11-08T11:59:15.105Z,51.29
2022-11-08T12:01:47.536Z,51.34
2022-11-08T12:04:21.740Z,51.42
2022-11-08T12:07:05.282Z,51.31
2022-11-08T12:09:48.608Z,51.31
2022-11-08T12:12:42.544Z,51.26
2022-11-08T12:15:11.996Z,51.38
2022-11-08T12:17:56.635Z,51.52
2022-11-08T12:20:42.070Z,51.66
2022-11-08T12:23:36.844Z,51.68
2022-11-08T12:26:37.022Z,51.59
2022-11-08T12:29:24.774Z,51.72
2022-11-08T12:32:09.411Z,51.56
2022-11-08T12:34:45.043Z,51.71
2022-11-08T12:37:29.217Z,51.75
2022-11-08T12:40:04.938Z,51.70
2022-11-08T12:42:58.365Z,51.76
2022-11-08T12:45:41.835Z,51.81
2022-11-08T12:48:27.232Z,51.72
2022-11-08T12:51:08.767Z,51.63
2022-11-08T12:54:13.026Z,51.61
2022-11-08T12:56:41.552Z,51.58
2022-11-08T12:59:29.027Z,51.60
2022-11-08T13:01:55.539Z,51.81
2022-11-08T13:04:31.023Z,51.89
2022-11-08T13:07:30.531Z,51.89
2022-11-08T13:10:07.863Z,51.87
2022-11-08T13:12:48.834Z,51.93
2022-11-08T13:15:17.819Z,51.83
2022-11-08T13:18:06.768Z,51.83
2022-11-08T13:20:43.102Z,51.94
2022-11-08T13:30:45.019Z,52.24
2022-11-08T13:33:15.431Z,52.27
2022-11-08T13:36:14.614Z,52.11
2022-11-08T13:38:59.060Z,52.25
2022-11-08T13:41:25.858Z,52.19
2022-11-08T13:43:55.979Z,52.04
2022-11-08T13:46:31.299Z,52.15
2022-11-08T13:48:57.674Z,52.07
2022-11-08T13:51:40.452Z,51.99
2022-11-08T13:54:22.386Z,52.14
2022-11-08T13:56:55.136Z,52.07
2022-11-08T13:59:30.752Z,51.93
2022-11-08T14:02:03.334Z,52.25
2022-11-08T14:04:40.137Z,52.08
2022-11-08T14:07:12.721Z,52.01
2022-11-08T14:09:45.377Z,52.12
2022-11-08T14:12:34.204Z,51.96
2022-11-08T14:15:07.263Z,52.23
2022-11-08T14:17:45.067Z,51.94
2022-11-08T14:20:17.491Z,52.21
2022-11-08T14:22:48.887Z,52.14
2022-11-08T14:25:29.456Z,52.20
2022-11-08T14:27:56.594Z,52.31
2022-11-08T14:30:23.742Z,52.28
2022-11-08T14:33:26.672Z,52.17
2022-11-08T14:36:14.931Z,52.18
2022-11-08T14:38:47.447Z,52.48
2022-11-08T14:41:25.245Z,52.20
2022-11-08T14:43:52.034Z,52.17
2022-11-08T14:46:29.240Z,52.25
2022-11-08T14:48:56.693Z,52.22
2022-11-08T14:51:23.592Z,52.37
2022-11-08T14:53:51.484Z,52.25
2022-11-08T14:56:25.189Z,52.33
2022-11-08T14:58:52.557Z,52.35
2022-11-08T15:01:24.178Z,52.29
2022-11-08T15:04:00.703Z,52.49
2022-11-08T15:06:39.306Z,52.42
2022-11-08T15:09:06.974Z,52.39
2022-11-08T15:11:40.041Z,52.35
2022-11-08T15:14:07.662Z,52.35
2022-11-08T15:16:54.586Z,52.47
2022-11-08T15:19:28.677Z,52.34
2022-11-08T15:21:55.447Z,52.56
2022-11-08T15:24:38.925Z,52.50
2022-11-08T15:27:23.921Z,52.51
2022-11-08T15:29:58.263Z,52.50
2022-11-08T15:32:24.772Z,52.23
2022-11-08T15:34:58.532Z,52.29
2022-11-08T15:37:35.470Z,52.49
2022-11-08T15:40:03.813Z,52.35
2022-11-08T15:42:30.372Z,52.45
2022-11-08T15:45:12.335Z,52.49
2022-11-08T15:47:42.718Z,52.65
2022-11-08T15:50:22.574Z,52.63
2022-11-08T15:52:50.786Z,52.60
2022-11-08T15:55:22.511Z,52.59
2022-11-08T15:57:49.326Z,52.74
2022-11-08T16:00:18.720Z,52.83
2022-11-08T16:02:45.259Z,52.87
2022-11-08T16:05:22.723Z,52.82
2022-11-08T16:07:49.439Z,52.80
2022-11-08T16:10:17.675Z,52.70
2022-11-08T16:12:45.370Z,52.73
2022-11-08T16:15:13.233Z,52.77
2022-11-08T16:17:39.925Z,52.81
2022-11-08T16:20:34.600Z,52.79
2022-11-08T16:23:02.561Z,52.71
2022-11-08T16:25:29.648Z,52.65
2022-11-08T16:27:58.375Z,52.58
2022-11-08T16:30:24.922Z,52.56
2022-11-08T16:32:51.415Z,52.81
2022-11-08T16:35:17.986Z,52.75
2022-11-08T16:37:44.513Z,52.61
2022-11-08T16:40:21.090Z,52.87
2022-11-08T16:42:48.478Z,52.92
2022-11-08T16:45:15.230Z,52.94
2022-11-08T16:47:42.778Z,52.77
2022-11-08T16:50:24.343Z,52.85
2022-11-08T16:52:50.852Z,52.91
2022-11-08T16:55:18.458Z,52.99
2022-11-08T16:57:45.150Z,53.06
2022-11-08T17:00:16.556Z,53.16
2022-11-08T17:02:52.706Z,52.91
2022-11-08T17:05:23.271Z,53.04
2022-11-08T17:07:53.201Z,53.15
2022-11-08T17:10:28.154Z,53.14
2022-11-08T17:12:54.739Z,53.02
2022-11-08T17:15:22.909Z,53.24
2022-11-08T17:17:49.942Z,53.08
2022-11-08T17:20:17.843Z,53.09
2022-11-08T17:22:44.866Z,53.26
2022-11-08T17:25:12.339Z,53.18
2022-11-08T17:27:39.074Z,53.19
2022-11-08T17:30:06.520Z,53.22
2022-11-08T17:32:34.455Z,53.26
2022-11-08T17:35:00.986Z,53.33
2022-11-08T17:37:27.468Z,53.30
2022-11-08T17:39:55.592Z,53.41
2022-11-08T17:42:22.630Z,53.62
2022-11-08T17:44:49.722Z,53.54
2022-11-08T17:47:16.567Z,53.40
2022-11-08T17:49:44.265Z,53.39
2022-11-08T17:52:11.723Z,53.94
2022-11-08T17:54:38.227Z,53.42
2022-11-08T17:57:04.718Z,53.32
2022-11-08T17:59:31.221Z,53.46
2022-11-08T18:01:57.854Z,53.40
2022-11-08T18:04:24.433Z,53.62
2022-11-08T18:06:51.009Z,53.43
2022-11-08T18:09:17.805Z,53.34
2022-11-08T18:11:47.773Z,53.52
2022-11-08T18:14:15.340Z,53.57
2022-11-08T18:16:41.840Z,53.50
2022-11-08T18:19:08.322Z,53.45
2022-11-08T18:21:34.846Z,53.80
2022-11-08T18:24:01.392Z,53.64
2022-11-08T18:26:27.873Z,53.78
2022-11-08T18:28:54.422Z,53.66
2022-11-08T18:31:21.303Z,53.91
2022-11-08T18:33:47.924Z,54.07
2022-11-08T18:36:15.472Z,54.07
2022-11-08T18:38:45.644Z,53.92
2022-11-08T18:41:13.580Z,54.20
2022-11-08T18:43:40.087Z,54.13
2022-11-08T18:46:08.388Z,54.11
2022-11-08T18:48:35.677Z,54.35
2022-11-08T18:51:03.548Z,54.10
2022-11-08T18:53:30.421Z,54.44
2022-11-08T18:55:56.927Z,54.30
2022-11-08T18:58:23.527Z,54.52
2022-11-08T19:00:51.920Z,54.38
2022-11-08T19:03:18.733Z,54.50
2022-11-08T19:05:48.411Z,54.38
2022-11-08T19:08:15.567Z,54.55
2022-11-08T19:10:56.102Z,54.41
2022-11-08T19:13:24.036Z,54.60
2022-11-08T19:16:11.985Z,54.41
2022-11-08T19:18:38.529Z,54.43
2022-11-08T19:21:06.765Z,54.60
2022-11-08T19:23:33.383Z,54.63
2022-11-08T19:26:04.438Z,54.59
2022-11-08T19:28:36.078Z,54.67
2022-11-08T19:31:02.687Z,54.75
2022-11-08T19:33:29.912Z,54.64
2022-11-08T19:36:00.365Z,54.81
2022-11-08T19:38:26.830Z,54.74
2022-11-08T19:40:53.330Z,54.64
2022-11-08T19:43:20.043Z,54.65
2022-11-08T19:45:52.408Z,54.75
2022-11-08T19:48:19.270Z,54.51
2022-11-08T19:50:46.136Z,54.62
2022-11-08T19:53:12.642Z,54.82
2022-11-08T19:55:39.124Z,54.60
2022-11-08T19:58:05.695Z,54.72
2022-11-08T20:00:32.187Z,54.77
2022-11-08T20:02:58.702Z,54.68
2022-11-08T20:05:25.248Z,54.72
2022-11-08T20:07:51.744Z,54.63
2022-11-08T20:10:18.240Z,54.55
2022-11-08T20:12:44.734Z,54.72
2022-11-08T20:15:11.240Z,54.69
2022-11-08T20:17:37.745Z,54.80
2022-11-08T20:20:05.624Z,54.85
2022-11-08T20:22:32.123Z,54.87
2022-11-08T20:24:58.623Z,54.69
2022-11-08T20:27:25.102Z,54.79
2022-11-08T20:29:51.937Z,54.78
2022-11-08T20:32:18.435Z,54.81
2022-11-08T20:34:46.124Z,54.78
2022-11-08T20:37:14.474Z,54.61
2022-11-08T20:39:41.142Z,54.83
2022-11-08T20:42:07.651Z,54.58
2022-11-08T20:44:34.152Z,54.86
2022-11-08T20:47:06.290Z,54.75
2022-11-08T20:49:33.387Z,54.88
2022-11-08T20:51:59.891Z,54.89
2022-11-08T20:54:26.478Z,55.00
2022-11-08T20:56:52.959Z,54.83
2022-11-08T20:59:19.475Z,54.76
2022-11-08T21:01:46.124Z,54.89
2022-11-08T21:04:12.715Z,54.93
2022-11-08T21:06:39.410Z,54.98
2022-11-08T21:11:53.067Z,55.00
2022-11-08T21:14:19.565Z,54.46
2022-11-08T21:17:15.050Z,54.63
2022-11-08T21:19:32.527Z,54.99
2022-11-08T21:22:15.085Z,55.03
2022-11-08T21:24:42.465Z,54.79
2022-11-08T21:27:09.266Z,54.85
2022-11-08T21:29:35.754Z,54.93
2022-11-08T21:32:02.579Z,54.95
2022-11-08T21:34:32.623Z,54.97
2022-11-08T21:36:59.472Z,55.00
2022-11-08T21:39:26.163Z,55.02
2022-11-08T21:41:52.680Z,54.93
2022-11-08T21:44:19.832Z,55.02
2022-11-08T21:46:46.343Z,55.18
2022-11-08T21:49:12.882Z,54.95
2022-11-08T21:51:39.424Z,54.98
2022-11-08T21:54:06.173Z,55.12
2022-11-08T21:56:33.774Z,55.24
2022-11-08T21:59:01.028Z,55.04
2022-11-08T22:01:30.500Z,55.05
2022-11-08T22:03:58.279Z,55.07
2022-11-08T22:06:24.839Z,54.95
2022-11-08T22:08:51.386Z,55.10
2022-11-08T22:11:18.116Z,54.99
2022-11-08T22:13:44.683Z,55.06
2022-11-08T22:16:11.204Z,55.07
2022-11-08T22:21:40.464Z,55.06
2022-11-08T22:24:08.351Z,54.97
2022-11-08T22:26:34.849Z,54.89
2022-11-08T22:29:01.359Z,54.79
2022-11-08T22:31:27.852Z,55.02
2022-11-08T22:33:54.364Z,54.96
2022-11-08T22:36:20.914Z,55.07
2022-11-08T22:38:47.518Z,55.05
2022-11-08T22:41:17.518Z,54.98
2022-11-08T22:43:44.289Z,54.93
2022-11-08T22:46:10.895Z,54.85
2022-11-08T22:48:37.407Z,55.00
2022-11-08T22:51:04.274Z,55.11
2022-11-08T22:53:30.803Z,55.00
2022-11-08T22:55:57.333Z,55.11
2022-11-08T22:58:23.812Z,55.14
2022-11-08T23:00:50.359Z,54.79
2022-11-08T23:03:17.153Z,54.96
2022-11-08T23:05:55.127Z,54.85
2022-11-08T23:08:22.959Z,55.05
2022-11-08T23:11:08.084Z,54.81
2022-11-08T23:13:54.494Z,54.96
2022-11-08T23:16:33.802Z,54.73
2022-11-08T23:19:19.878Z,54.93
2022-11-08T23:22:05.895Z,54.92
2022-11-08T23:24:32.386Z,55.02
2022-11-08T23:27:18.610Z,54.86
2022-11-08T23:30:04.138Z,54.89
2022-11-08T23:32:30.664Z,55.02
2022-11-08T23:34:57.137Z,54.87
2022-11-08T23:37:23.755Z,54.75
2022-11-08T23:40:13.059Z,54.75
2022-11-08T23:42:57.872Z,54.84
2022-11-08T23:45:24.399Z,55.00
2022-11-08T23:47:51.710Z,54.65
2022-11-08T23:50:18.291Z,54.75
2022-11-08T23:52:44.774Z,54.78
2022-11-08T23:55:11.269Z,55.07
2022-11-08T23:57:37.774Z,54.69
